sensor_id;sensor_type;location;lat;lon;timestamp;P1;durP1;ratioP1;P2;durP2;ratioP2
56999;SDS011;42891;50.006;21.964;2023-02-26T00:02:50;11.68;;;7.63;;
56999;SDS011;42891;50.006;21.964;2023-02-26T00:06:51;13.85;;;9.02;;
56999;SDS011;42891;50.006;21.964;2023-02-26T00:10:51;14.32;;;9.88;;
56999;SDS011;42891;50.006;21.964;2023-02-26T00:14:53;11.38;;;7.97;;
56999;SDS011;42891;50.006;21.964;2023-02-26T00:18:54;13.30;;;8.63;;
56999;SDS011;42891;50.006;21.964;2023-02-26T00:22:56;15.75;;;9.23;;
56999;SDS011;42891;50.006;21.964;2023-02-26T00:26:56;12.25;;;8.80;;
56999;SDS011;42891;50.006;21.964;2023-02-26T00:30:57;12.95;;;9.15;;
56999;SDS011;42891;50.006;21.964;2023-02-26T00:34:58;12.02;;;7.85;;
56999;SDS011;42891;50.006;21.964;2023-02-26T00:39:12;12.13;;;7.78;;
56999;SDS011;42891;50.006;21.964;2023-02-26T00:43:18;12.38;;;7.40;;
56999;SDS011;42891;50.006;21.964;2023-02-26T00:51:54;11.10;;;7.67;;
56999;SDS011;42891;50.006;21.964;2023-02-26T00:55:57;9.70;;;7.68;;
56999;SDS011;42891;50.006;21.964;2023-02-26T00:59:57;13.10;;;7.55;;
56999;SDS011;42891;50.006;21.964;2023-02-26T01:03:58;14.10;;;7.93;;
56999;SDS011;42891;50.006;21.964;2023-02-26T01:08:07;12.18;;;8.63;;
56999;SDS011;42891;50.006;21.964;2023-02-26T01:12:12;11.73;;;7.80;;
56999;SDS011;42891;50.006;21.964;2023-02-26T01:16:15;12.35;;;8.10;;
56999;SDS011;42891;50.006;21.964;2023-02-26T01:20:25;13.70;;;8.70;;
56999;SDS011;42891;50.006;21.964;2023-02-26T01:24:30;12.77;;;8.88;;
56999;SDS011;42891;50.006;21.964;2023-02-26T01:28:31;12.15;;;7.45;;
56999;SDS011;42891;50.006;21.964;2023-02-26T01:36:55;12.35;;;8.50;;
56999;SDS011;42891;50.006;21.964;2023-02-26T01:45:38;11.60;;;8.40;;
56999;SDS011;42891;50.006;21.964;2023-02-26T01:49:47;12.05;;;9.02;;
56999;SDS011;42891;50.006;21.964;2023-02-26T01:53:48;11.50;;;8.75;;
56999;SDS011;42891;50.006;21.964;2023-02-26T01:57:48;13.73;;;8.60;;
56999;SDS011;42891;50.006;21.964;2023-02-26T02:01:52;16.73;;;9.90;;
56999;SDS011;42891;50.006;21.964;2023-02-26T02:05:56;18.42;;;10.45;;
56999;SDS011;42891;50.006;21.964;2023-02-26T02:10:00;16.20;;;9.13;;
56999;SDS011;42891;50.006;21.964;2023-02-26T02:31:21;9.57;;;6.10;;
56999;SDS011;42891;50.006;21.964;2023-02-26T02:35:33;9.13;;;6.40;;
56999;SDS011;42891;50.006;21.964;2023-02-26T02:39:41;7.57;;;6.10;;
56999;SDS011;42891;50.006;21.964;2023-02-26T02:47:48;9.13;;;6.50;;
56999;SDS011;42891;50.006;21.964;2023-02-26T02:51:54;10.85;;;6.43;;
56999;SDS011;42891;50.006;21.964;2023-02-26T02:56:11;9.85;;;6.10;;
56999;SDS011;42891;50.006;21.964;2023-02-26T03:00:17;9.57;;;6.72;;
56999;SDS011;42891;50.006;21.964;2023-02-26T03:04:20;12.90;;;7.03;;
56999;SDS011;42891;50.006;21.964;2023-02-26T03:08:21;7.57;;;6.05;;
56999;SDS011;42891;50.006;21.964;2023-02-26T03:12:30;10.88;;;6.57;;
56999;SDS011;42891;50.006;21.964;2023-02-26T03:25:16;8.02;;;6.22;;
56999;SDS011;42891;50.006;21.964;2023-02-26T03:29:26;9.18;;;6.15;;
56999;SDS011;42891;50.006;21.964;2023-02-26T03:37:57;6.30;;;5.38;;
56999;SDS011;42891;50.006;21.964;2023-02-26T03:42:10;5.78;;;5.13;;
56999;SDS011;42891;50.006;21.964;2023-02-26T03:46:17;6.28;;;5.00;;
56999;SDS011;42891;50.006;21.964;2023-02-26T03:50:24;9.20;;;5.35;;
56999;SDS011;42891;50.006;21.964;2023-02-26T03:54:41;6.30;;;4.93;;
56999;SDS011;42891;50.006;21.964;2023-02-26T03:58:46;7.20;;;5.50;;
56999;SDS011;42891;50.006;21.964;2023-02-26T04:07:05;8.02;;;5.93;;
56999;SDS011;42891;50.006;21.964;2023-02-26T04:11:08;9.82;;;6.35;;
56999;SDS011;42891;50.006;21.964;2023-02-26T04:15:11;7.88;;;4.85;;
56999;SDS011;42891;50.006;21.964;2023-02-26T04:19:12;7.95;;;5.65;;
56999;SDS011;42891;50.006;21.964;2023-02-26T04:23:13;6.97;;;5.40;;
56999;SDS011;42891;50.006;21.964;2023-02-26T04:27:13;7.78;;;5.47;;
56999;SDS011;42891;50.006;21.964;2023-02-26T04:31:13;8.18;;;5.55;;
56999;SDS011;42891;50.006;21.964;2023-02-26T04:35:14;8.25;;;5.53;;
56999;SDS011;42891;50.006;21.964;2023-02-26T04:39:14;8.35;;;5.35;;
56999;SDS011;42891;50.006;21.964;2023-02-26T04:43:15;6.18;;;5.28;;
56999;SDS011;42891;50.006;21.964;2023-02-26T04:47:16;7.85;;;5.75;;
56999;SDS011;42891;50.006;21.964;2023-02-26T04:51:16;7.90;;;5.55;;
56999;SDS011;42891;50.006;21.964;2023-02-26T04:55:17;7.57;;;5.78;;
56999;SDS011;42891;50.006;21.964;2023-02-26T04:59:17;8.38;;;5.75;;
56999;SDS011;42891;50.006;21.964;2023-02-26T05:03:17;9.10;;;6.40;;
56999;SDS011;42891;50.006;21.964;2023-02-26T05:07:18;8.43;;;6.22;;
56999;SDS011;42891;50.006;21.964;2023-02-26T05:11:18;7.65;;;5.90;;
56999;SDS011;42891;50.006;21.964;2023-02-26T05:15:19;7.28;;;5.38;;
56999;SDS011;42891;50.006;21.964;2023-02-26T05:19:19;8.38;;;5.72;;
56999;SDS011;42891;50.006;21.964;2023-02-26T05:23:19;7.25;;;5.32;;
56999;SDS011;42891;50.006;21.964;2023-02-26T05:27:20;7.10;;;5.00;;
56999;SDS011;42891;50.006;21.964;2023-02-26T05:31:20;6.93;;;5.10;;
56999;SDS011;42891;50.006;21.964;2023-02-26T05:35:20;7.80;;;5.43;;
56999;SDS011;42891;50.006;21.964;2023-02-26T05:39:21;6.07;;;5.13;;
56999;SDS011;42891;50.006;21.964;2023-02-26T05:43:21;8.05;;;5.57;;
56999;SDS011;42891;50.006;21.964;2023-02-26T05:47:21;8.18;;;5.93;;
56999;SDS011;42891;50.006;21.964;2023-02-26T05:51:22;9.95;;;5.93;;
56999;SDS011;42891;50.006;21.964;2023-02-26T05:55:23;8.52;;;6.00;;
56999;SDS011;42891;50.006;21.964;2023-02-26T05:59:23;7.15;;;5.20;;
56999;SDS011;42891;50.006;21.964;2023-02-26T06:03:24;7.13;;;5.60;;
56999;SDS011;42891;50.006;21.964;2023-02-26T06:07:24;10.13;;;5.53;;
56999;SDS011;42891;50.006;21.964;2023-02-26T06:11:24;6.25;;;5.38;;
56999;SDS011;42891;50.006;21.964;2023-02-26T06:15:24;7.07;;;5.70;;
56999;SDS011;42891;50.006;21.964;2023-02-26T06:19:25;8.55;;;5.93;;
56999;SDS011;42891;50.006;21.964;2023-02-26T06:23:25;6.55;;;5.50;;
56999;SDS011;42891;50.006;21.964;2023-02-26T06:27:26;7.63;;;5.50;;
56999;SDS011;42891;50.006;21.964;2023-02-26T06:31:26;7.20;;;5.00;;
56999;SDS011;42891;50.006;21.964;2023-02-26T06:35:26;8.20;;;5.55;;
56999;SDS011;42891;50.006;21.964;2023-02-26T06:39:29;6.25;;;5.03;;
56999;SDS011;42891;50.006;21.964;2023-02-26T06:43:30;6.97;;;4.90;;
56999;SDS011;42891;50.006;21.964;2023-02-26T06:47:30;6.22;;;5.22;;
56999;SDS011;42891;50.006;21.964;2023-02-26T06:51:31;7.45;;;5.50;;
56999;SDS011;42891;50.006;21.964;2023-02-26T06:55:32;6.75;;;5.40;;
56999;SDS011;42891;50.006;21.964;2023-02-26T06:59:32;7.68;;;5.40;;
56999;SDS011;42891;50.006;21.964;2023-02-26T07:03:33;6.20;;;5.38;;
56999;SDS011;42891;50.006;21.964;2023-02-26T07:07:33;7.53;;;5.30;;
56999;SDS011;42891;50.006;21.964;2023-02-26T07:11:33;7.10;;;5.63;;
56999;SDS011;42891;50.006;21.964;2023-02-26T07:15:34;7.78;;;5.32;;
56999;SDS011;42891;50.006;21.964;2023-02-26T07:19:34;7.97;;;5.82;;
56999;SDS011;42891;50.006;21.964;2023-02-26T07:23:34;8.68;;;5.60;;
56999;SDS011;42891;50.006;21.964;2023-02-26T07:27:35;6.72;;;4.93;;
56999;SDS011;42891;50.006;21.964;2023-02-26T07:31:35;8.32;;;5.88;;
56999;SDS011;42891;50.006;21.964;2023-02-26T07:35:36;8.35;;;5.65;;
56999;SDS011;42891;50.006;21.964;2023-02-26T07:39:36;6.55;;;5.05;;
56999;SDS011;42891;50.006;21.964;2023-02-26T07:43:36;7.87;;;5.57;;
56999;SDS011;42891;50.006;21.964;2023-02-26T07:47:37;7.00;;;4.60;;
56999;SDS011;42891;50.006;21.964;2023-02-26T07:51:37;6.60;;;4.55;;
56999;SDS011;42891;50.006;21.964;2023-02-26T07:55:38;7.60;;;5.32;;
56999;SDS011;42891;50.006;21.964;2023-02-26T07:59:38;6.70;;;5.00;;
56999;SDS011;42891;50.006;21.964;2023-02-26T08:03:38;8.60;;;4.97;;
56999;SDS011;42891;50.006;21.964;2023-02-26T08:07:39;8.93;;;5.97;;
56999;SDS011;42891;50.006;21.964;2023-02-26T08:11:39;7.78;;;4.80;;
56999;SDS011;42891;50.006;21.964;2023-02-26T08:15:42;6.85;;;5.03;;
56999;SDS011;42891;50.006;21.964;2023-02-26T08:19:42;8.20;;;6.15;;
56999;SDS011;42891;50.006;21.964;2023-02-26T08:23:43;7.03;;;5.50;;
56999;SDS011;42891;50.006;21.964;2023-02-26T08:27:43;7.93;;;5.15;;
56999;SDS011;42891;50.006;21.964;2023-02-26T08:31:43;8.68;;;5.30;;
56999;SDS011;42891;50.006;21.964;2023-02-26T08:35:44;7.63;;;5.55;;
56999;SDS011;42891;50.006;21.964;2023-02-26T08:39:44;7.10;;;5.25;;
56999;SDS011;42891;50.006;21.964;2023-02-26T08:43:44;8.37;;;5.60;;
56999;SDS011;42891;50.006;21.964;2023-02-26T08:47:45;7.30;;;5.30;;
56999;SDS011;42891;50.006;21.964;2023-02-26T08:51:45;9.30;;;5.57;;
56999;SDS011;42891;50.006;21.964;2023-02-26T08:55:47;8.07;;;4.95;;
56999;SDS011;42891;50.006;21.964;2023-02-26T08:59:48;9.40;;;5.93;;
56999;SDS011;42891;50.006;21.964;2023-02-26T09:03:48;10.30;;;6.60;;
56999;SDS011;42891;50.006;21.964;2023-02-26T09:07:49;7.73;;;5.07;;
56999;SDS011;42891;50.006;21.964;2023-02-26T09:11:49;7.93;;;4.82;;
56999;SDS011;42891;50.006;21.964;2023-02-26T09:15:49;9.38;;;6.05;;
56999;SDS011;42891;50.006;21.964;2023-02-26T09:19:49;11.32;;;6.28;;
56999;SDS011;42891;50.006;21.964;2023-02-26T09:23:50;9.00;;;5.65;;
56999;SDS011;42891;50.006;21.964;2023-02-26T09:27:50;10.60;;;5.82;;
56999;SDS011;42891;50.006;21.964;2023-02-26T09:31:50;8.47;;;4.73;;
56999;SDS011;42891;50.006;21.964;2023-02-26T09:35:51;7.90;;;5.05;;
56999;SDS011;42891;50.006;21.964;2023-02-26T09:39:51;6.55;;;4.82;;
56999;SDS011;42891;50.006;21.964;2023-02-26T09:48:20;7.05;;;5.22;;
56999;SDS011;42891;50.006;21.964;2023-02-26T09:52:43;8.10;;;5.68;;
56999;SDS011;42891;50.006;21.964;2023-02-26T09:56:48;6.15;;;4.57;;
56999;SDS011;42891;50.006;21.964;2023-02-26T10:01:10;7.95;;;4.93;;
56999;SDS011;42891;50.006;21.964;2023-02-26T10:05:19;9.30;;;5.35;;
56999;SDS011;42891;50.006;21.964;2023-02-26T10:14:11;8.47;;;5.67;;
56999;SDS011;42891;50.006;21.964;2023-02-26T10:18:26;8.10;;;5.00;;
56999;SDS011;42891;50.006;21.964;2023-02-26T10:26:52;8.55;;;5.82;;
56999;SDS011;42891;50.006;21.964;2023-02-26T10:35:13;7.25;;;5.75;;
56999;SDS011;42891;50.006;21.964;2023-02-26T10:43:32;9.77;;;5.85;;
56999;SDS011;42891;50.006;21.964;2023-02-26T10:47:45;9.20;;;4.38;;
56999;SDS011;42891;50.006;21.964;2023-02-26T10:51:52;5.22;;;4.20;;
56999;SDS011;42891;50.006;21.964;2023-02-26T11:00:32;7.00;;;4.75;;
56999;SDS011;42891;50.006;21.964;2023-02-26T11:04:34;10.27;;;5.40;;
56999;SDS011;42891;50.006;21.964;2023-02-26T11:08:41;5.45;;;4.45;;
56999;SDS011;42891;50.006;21.964;2023-02-26T11:12:44;8.65;;;5.75;;
56999;SDS011;42891;50.006;21.964;2023-02-26T11:16:46;9.20;;;6.00;;
56999;SDS011;42891;50.006;21.964;2023-02-26T11:20:52;8.10;;;5.50;;
56999;SDS011;42891;50.006;21.964;2023-02-26T11:24:55;8.55;;;5.60;;
56999;SDS011;42891;50.006;21.964;2023-02-26T11:28:56;6.70;;;5.25;;
56999;SDS011;42891;50.006;21.964;2023-02-26T11:33:02;8.43;;;5.90;;
56999;SDS011;42891;50.006;21.964;2023-02-26T11:37:06;9.60;;;6.00;;
56999;SDS011;42891;50.006;21.964;2023-02-26T11:41:07;9.50;;;5.85;;
56999;SDS011;42891;50.006;21.964;2023-02-26T11:45:11;13.00;;;6.55;;
56999;SDS011;42891;50.006;21.964;2023-02-26T11:49:16;11.02;;;7.43;;
56999;SDS011;42891;50.006;21.964;2023-02-26T11:53:29;11.32;;;6.57;;
56999;SDS011;42891;50.006;21.964;2023-02-26T11:57:34;8.10;;;5.55;;
56999;SDS011;42891;50.006;21.964;2023-02-26T12:01:36;10.45;;;6.30;;
56999;SDS011;42891;50.006;21.964;2023-02-26T12:05:37;11.20;;;6.75;;
56999;SDS011;42891;50.006;21.964;2023-02-26T12:09:37;9.07;;;5.57;;
56999;SDS011;42891;50.006;21.964;2023-02-26T12:13:46;9.23;;;5.53;;
56999;SDS011;42891;50.006;21.964;2023-02-26T12:26:33;7.63;;;5.32;;
56999;SDS011;42891;50.006;21.964;2023-02-26T12:30:42;8.10;;;5.45;;
56999;SDS011;42891;50.006;21.964;2023-02-26T12:57:08;14.68;;;7.25;;
56999;SDS011;42891;50.006;21.964;2023-02-26T13:10:35;11.85;;;7.93;;
56999;SDS011;42891;50.006;21.964;2023-02-26T13:23:37;21.40;;;13.18;;
56999;SDS011;42891;50.006;21.964;2023-02-26T13:28:00;13.95;;;8.55;;
56999;SDS011;42891;50.006;21.964;2023-02-26T13:32:09;10.32;;;6.82;;
56999;SDS011;42891;50.006;21.964;2023-02-26T13:36:13;17.15;;;9.50;;
56999;SDS011;42891;50.006;21.964;2023-02-26T13:44:38;18.80;;;10.00;;
56999;SDS011;42891;50.006;21.964;2023-02-26T13:49:19;17.30;;;9.93;;
56999;SDS011;42891;50.006;21.964;2023-02-26T14:05:51;19.58;;;10.15;;
56999;SDS011;42891;50.006;21.964;2023-02-26T14:10:01;8.48;;;5.95;;
56999;SDS011;42891;50.006;21.964;2023-02-26T14:14:05;20.63;;;10.80;;
56999;SDS011;42891;50.006;21.964;2023-02-26T14:22:40;12.50;;;7.05;;
56999;SDS011;42891;50.006;21.964;2023-02-26T14:26:44;15.07;;;9.05;;
56999;SDS011;42891;50.006;21.964;2023-02-26T14:30:47;16.30;;;11.10;;
56999;SDS011;42891;50.006;21.964;2023-02-26T14:34:53;21.17;;;12.23;;
56999;SDS011;42891;50.006;21.964;2023-02-26T14:38:59;25.83;;;13.73;;
56999;SDS011;42891;50.006;21.964;2023-02-26T14:43:05;27.60;;;14.05;;
56999;SDS011;42891;50.006;21.964;2023-02-26T14:47:07;36.45;;;17.65;;
56999;SDS011;42891;50.006;21.964;2023-02-26T15:12:13;21.20;;;13.32;;
56999;SDS011;42891;50.006;21.964;2023-02-26T15:16:41;17.77;;;11.57;;
56999;SDS011;42891;50.006;21.964;2023-02-26T15:24:59;14.55;;;9.75;;
56999;SDS011;42891;50.006;21.964;2023-02-26T15:29:03;17.48;;;10.40;;
56999;SDS011;42891;50.006;21.964;2023-02-26T15:33:09;16.23;;;10.52;;
56999;SDS011;42891;50.006;21.964;2023-02-26T15:37:19;16.70;;;11.20;;
56999;SDS011;42891;50.006;21.964;2023-02-26T15:41:21;19.65;;;12.32;;
56999;SDS011;42891;50.006;21.964;2023-02-26T15:45:30;18.20;;;11.13;;
56999;SDS011;42891;50.006;21.964;2023-02-26T15:49:39;14.52;;;9.68;;
56999;SDS011;42891;50.006;21.964;2023-02-26T15:53:43;15.82;;;10.00;;
56999;SDS011;42891;50.006;21.964;2023-02-26T15:57:46;17.25;;;9.48;;
56999;SDS011;42891;50.006;21.964;2023-02-26T16:01:48;17.27;;;10.82;;
56999;SDS011;42891;50.006;21.964;2023-02-26T16:05:49;18.27;;;10.77;;
56999;SDS011;42891;50.006;21.964;2023-02-26T16:09:50;18.20;;;10.90;;
56999;SDS011;42891;50.006;21.964;2023-02-26T16:13:53;16.30;;;10.50;;
56999;SDS011;42891;50.006;21.964;2023-02-26T16:17:54;14.48;;;9.45;;
56999;SDS011;42891;50.006;21.964;2023-02-26T16:21:55;15.32;;;9.57;;
56999;SDS011;42891;50.006;21.964;2023-02-26T16:26:00;15.70;;;9.65;;
56999;SDS011;42891;50.006;21.964;2023-02-26T16:30:03;16.65;;;9.70;;
56999;SDS011;42891;50.006;21.964;2023-02-26T16:34:20;18.30;;;10.18;;
56999;SDS011;42891;50.006;21.964;2023-02-26T16:38:23;15.50;;;9.68;;
56999;SDS011;42891;50.006;21.964;2023-02-26T16:46:45;16.58;;;9.50;;
56999;SDS011;42891;50.006;21.964;2023-02-26T16:50:54;13.27;;;8.43;;
56999;SDS011;42891;50.006;21.964;2023-02-26T16:55:01;16.35;;;9.10;;
56999;SDS011;42891;50.006;21.964;2023-02-26T16:59:05;17.25;;;9.65;;
56999;SDS011;42891;50.006;21.964;2023-02-26T17:03:11;21.60;;;12.05;;
56999;SDS011;42891;50.006;21.964;2023-02-26T17:15:37;21.48;;;11.45;;
56999;SDS011;42891;50.006;21.964;2023-02-26T17:19:38;27.50;;;12.75;;
56999;SDS011;42891;50.006;21.964;2023-02-26T17:23:38;23.80;;;12.60;;
56999;SDS011;42891;50.006;21.964;2023-02-26T17:27:38;24.23;;;13.02;;
56999;SDS011;42891;50.006;21.964;2023-02-26T17:31:39;27.48;;;15.63;;
56999;SDS011;42891;50.006;21.964;2023-02-26T17:35:42;32.40;;;19.15;;
56999;SDS011;42891;50.006;21.964;2023-02-26T17:39:43;32.78;;;17.30;;
56999;SDS011;42891;50.006;21.964;2023-02-26T17:43:44;33.88;;;17.20;;
56999;SDS011;42891;50.006;21.964;2023-02-26T17:47:45;35.08;;;16.60;;
56999;SDS011;42891;50.006;21.964;2023-02-26T17:51:46;30.70;;;16.48;;
56999;SDS011;42891;50.006;21.964;2023-02-26T17:55:47;28.92;;;16.27;;
56999;SDS011;42891;50.006;21.964;2023-02-26T17:59:49;24.15;;;12.95;;
56999;SDS011;42891;50.006;21.964;2023-02-26T18:03:49;28.67;;;14.48;;
56999;SDS011;42891;50.006;21.964;2023-02-26T18:07:49;26.65;;;13.18;;
56999;SDS011;42891;50.006;21.964;2023-02-26T18:11:51;26.55;;;14.35;;
56999;SDS011;42891;50.006;21.964;2023-02-26T18:15:52;30.47;;;17.20;;
56999;SDS011;42891;50.006;21.964;2023-02-26T18:19:55;25.85;;;14.63;;
56999;SDS011;42891;50.006;21.964;2023-02-26T18:23:56;22.52;;;12.27;;
56999;SDS011;42891;50.006;21.964;2023-02-26T18:28:00;18.10;;;11.38;;
56999;SDS011;42891;50.006;21.964;2023-02-26T18:32:00;18.83;;;11.40;;
56999;SDS011;42891;50.006;21.964;2023-02-26T18:36:02;18.08;;;11.57;;
56999;SDS011;42891;50.006;21.964;2023-02-26T18:40:03;16.73;;;9.85;;
56999;SDS011;42891;50.006;21.964;2023-02-26T18:44:04;14.82;;;8.38;;
56999;SDS011;42891;50.006;21.964;2023-02-26T18:48:04;13.25;;;7.78;;
56999;SDS011;42891;50.006;21.964;2023-02-26T18:52:05;22.90;;;8.20;;
56999;SDS011;42891;50.006;21.964;2023-02-26T18:56:05;19.23;;;8.80;;
56999;SDS011;42891;50.006;21.964;2023-02-26T19:00:07;13.35;;;7.63;;
56999;SDS011;42891;50.006;21.964;2023-02-26T19:04:09;14.38;;;8.48;;
56999;SDS011;42891;50.006;21.964;2023-02-26T19:08:09;12.90;;;7.57;;
56999;SDS011;42891;50.006;21.964;2023-02-26T19:12:10;15.23;;;8.57;;
56999;SDS011;42891;50.006;21.964;2023-02-26T19:16:16;11.05;;;7.40;;
56999;SDS011;42891;50.006;21.964;2023-02-26T19:20:21;12.68;;;7.50;;
56999;SDS011;42891;50.006;21.964;2023-02-26T19:24:21;10.60;;;6.95;;
56999;SDS011;42891;50.006;21.964;2023-02-26T19:28:22;13.30;;;7.57;;
56999;SDS011;42891;50.006;21.964;2023-02-26T19:32:23;12.35;;;7.72;;
56999;SDS011;42891;50.006;21.964;2023-02-26T19:36:25;10.77;;;6.70;;
56999;SDS011;42891;50.006;21.964;2023-02-26T19:40:33;8.27;;;5.15;;
56999;SDS011;42891;50.006;21.964;2023-02-26T19:44:33;11.73;;;6.30;;
56999;SDS011;42891;50.006;21.964;2023-02-26T19:48:34;10.75;;;6.30;;
56999;SDS011;42891;50.006;21.964;2023-02-26T19:52:37;9.40;;;6.50;;
56999;SDS011;42891;50.006;21.964;2023-02-26T19:56:38;9.23;;;5.93;;
56999;SDS011;42891;50.006;21.964;2023-02-26T20:00:39;9.80;;;5.75;;
56999;SDS011;42891;50.006;21.964;2023-02-26T20:04:40;11.50;;;5.65;;
56999;SDS011;42891;50.006;21.964;2023-02-26T20:08:40;10.40;;;5.47;;
56999;SDS011;42891;50.006;21.964;2023-02-26T20:12:41;14.45;;;7.55;;
56999;SDS011;42891;50.006;21.964;2023-02-26T20:16:42;39.15;;;15.85;;
56999;SDS011;42891;50.006;21.964;2023-02-26T20:20:43;30.30;;;14.43;;
56999;SDS011;42891;50.006;21.964;2023-02-26T20:24:43;21.55;;;10.50;;
56999;SDS011;42891;50.006;21.964;2023-02-26T20:28:43;38.72;;;15.85;;
56999;SDS011;42891;50.006;21.964;2023-02-26T20:32:44;13.80;;;7.18;;
56999;SDS011;42891;50.006;21.964;2023-02-26T20:36:44;12.88;;;6.95;;
56999;SDS011;42891;50.006;21.964;2023-02-26T20:40:47;17.30;;;9.40;;
56999;SDS011;42891;50.006;21.964;2023-02-26T20:44:48;13.70;;;7.25;;
56999;SDS011;42891;50.006;21.964;2023-02-26T20:48:48;14.52;;;7.78;;
56999;SDS011;42891;50.006;21.964;2023-02-26T20:52:48;41.95;;;17.33;;
56999;SDS011;42891;50.006;21.964;2023-02-26T20:56:49;19.00;;;10.33;;
56999;SDS011;42891;50.006;21.964;2023-02-26T21:00:50;19.42;;;10.50;;
56999;SDS011;42891;50.006;21.964;2023-02-26T21:04:53;14.63;;;8.32;;
56999;SDS011;42891;50.006;21.964;2023-02-26T21:08:53;11.32;;;6.70;;
56999;SDS011;42891;50.006;21.964;2023-02-26T21:12:55;9.23;;;6.07;;
56999;SDS011;42891;50.006;21.964;2023-02-26T21:16:55;11.77;;;6.25;;
56999;SDS011;42891;50.006;21.964;2023-02-26T21:20:57;11.25;;;6.15;;
56999;SDS011;42891;50.006;21.964;2023-02-26T21:24:58;10.90;;;5.93;;
56999;SDS011;42891;50.006;21.964;2023-02-26T21:28:58;11.52;;;6.35;;
56999;SDS011;42891;50.006;21.964;2023-02-26T21:32:59;13.55;;;6.60;;
56999;SDS011;42891;50.006;21.964;2023-02-26T21:37:04;10.85;;;6.22;;
56999;SDS011;42891;50.006;21.964;2023-02-26T21:41:06;12.73;;;6.68;;
56999;SDS011;42891;50.006;21.964;2023-02-26T21:45:07;13.70;;;6.78;;
56999;SDS011;42891;50.006;21.964;2023-02-26T21:49:08;13.00;;;7.25;;
56999;SDS011;42891;50.006;21.964;2023-02-26T21:53:08;13.25;;;7.07;;
56999;SDS011;42891;50.006;21.964;2023-02-26T21:57:08;10.15;;;6.00;;
56999;SDS011;42891;50.006;21.964;2023-02-26T22:01:09;11.05;;;6.70;;
56999;SDS011;42891;50.006;21.964;2023-02-26T22:05:09;13.27;;;6.72;;
56999;SDS011;42891;50.006;21.964;2023-02-26T22:09:10;11.48;;;6.80;;
56999;SDS011;42891;50.006;21.964;2023-02-26T22:13:11;11.80;;;6.78;;
56999;SDS011;42891;50.006;21.964;2023-02-26T22:17:11;13.20;;;7.00;;
56999;SDS011;42891;50.006;21.964;2023-02-26T22:21:11;11.63;;;6.07;;
56999;SDS011;42891;50.006;21.964;2023-02-26T22:25:12;9.93;;;6.65;;
56999;SDS011;42891;50.006;21.964;2023-02-26T22:29:12;10.50;;;5.85;;
56999;SDS011;42891;50.006;21.964;2023-02-26T22:33:13;12.18;;;7.38;;
56999;SDS011;42891;50.006;21.964;2023-02-26T22:37:13;15.25;;;7.22;;
56999;SDS011;42891;50.006;21.964;2023-02-26T22:41:14;13.20;;;6.97;;
56999;SDS011;42891;50.006;21.964;2023-02-26T22:45:14;12.02;;;6.80;;
56999;SDS011;42891;50.006;21.964;2023-02-26T22:49:16;13.75;;;7.65;;
56999;SDS011;42891;50.006;21.964;2023-02-26T22:53:16;13.60;;;7.82;;
56999;SDS011;42891;50.006;21.964;2023-02-26T22:57:16;16.00;;;7.75;;
56999;SDS011;42891;50.006;21.964;2023-02-26T23:01:16;12.63;;;7.22;;
56999;SDS011;42891;50.006;21.964;2023-02-26T23:05:17;14.85;;;7.45;;
56999;SDS011;42891;50.006;21.964;2023-02-26T23:09:19;10.45;;;6.70;;
56999;SDS011;42891;50.006;21.964;2023-02-26T23:13:19;11.65;;;6.75;;
56999;SDS011;42891;50.006;21.964;2023-02-26T23:17:20;10.30;;;6.53;;
56999;SDS011;42891;50.006;21.964;2023-02-26T23:21:21;9.60;;;5.85;;
56999;SDS011;42891;50.006;21.964;2023-02-26T23:25:21;9.63;;;6.03;;
56999;SDS011;42891;50.006;21.964;2023-02-26T23:29:21;9.57;;;5.28;;
56999;SDS011;42891;50.006;21.964;2023-02-26T23:33:21;9.70;;;5.63;;
56999;SDS011;42891;50.006;21.964;2023-02-26T23:37:22;9.38;;;5.20;;
56999;SDS011;42891;50.006;21.964;2023-02-26T23:41:22;8.43;;;5.20;;
56999;SDS011;42891;50.006;21.964;2023-02-26T23:45:23;9.85;;;5.70;;
56999;SDS011;42891;50.006;21.964;2023-02-26T23:49:23;8.70;;;5.38;;
56999;SDS011;42891;50.006;21.964;2023-02-26T23:53:23;9.75;;;5.55;;
56999;SDS011;42891;50.006;21.964;2023-02-26T23:57:24;10.93;;;6.10;;
